sensor_id;sensor_type;location;lat;lon;timestamp;temperature;humidity
24860;DHT22;12936;52.006;4.350;2023-04-24T00:00:35;12.20;99.90
24860;DHT22;12936;52.006;4.350;2023-04-24T00:03:04;12.20;99.90
24860;DHT22;12936;52.006;4.350;2023-04-24T00:05:33;12.20;99.90
24860;DHT22;12936;52.006;4.350;2023-04-24T00:08:01;12.20;99.90
24860;DHT22;12936;52.006;4.350;2023-04-24T00:10:32;12.20;99.90
24860;DHT22;12936;52.006;4.350;2023-04-24T00:13:00;12.20;99.90
24860;DHT22;12936;52.006;4.350;2023-04-24T00:15:28;12.20;99.90
24860;DHT22;12936;52.006;4.350;2023-04-24T00:17:59;12.20;99.90
24860;DHT22;12936;52.006;4.350;2023-04-24T00:20:28;12.20;99.90
24860;DHT22;12936;52.006;4.350;2023-04-24T00:22:56;12.20;99.90
24860;DHT22;12936;52.006;4.350;2023-04-24T00:25:24;12.20;99.90
24860;DHT22;12936;52.006;4.350;2023-04-24T00:27:52;12.20;99.90
24860;DHT22;12936;52.006;4.350;2023-04-24T00:30:20;12.20;99.90
24860;DHT22;12936;52.006;4.350;2023-04-24T00:32:48;12.20;99.90
24860;DHT22;12936;52.006;4.350;2023-04-24T00:35:18;12.10;99.90
24860;DHT22;12936;52.006;4.350;2023-04-24T00:37:46;12.10;99.90
24860;DHT22;12936;52.006;4.350;2023-04-24T00:40:14;12.10;99.90
24860;DHT22;12936;52.006;4.350;2023-04-24T00:42:43;12.10;99.90
24860;DHT22;12936;52.006;4.350;2023-04-24T00:45:12;12.10;99.90
24860;DHT22;12936;52.006;4.350;2023-04-24T00:47:41;12.10;99.90
24860;DHT22;12936;52.006;4.350;2023-04-24T00:50:10;12.10;99.90
24860;DHT22;12936;52.006;4.350;2023-04-24T00:52:41;12.00;99.90
24860;DHT22;12936;52.006;4.350;2023-04-24T00:55:09;12.00;99.90
24860;DHT22;12936;52.006;4.350;2023-04-24T00:57:37;12.00;99.90
24860;DHT22;12936;52.006;4.350;2023-04-24T01:00:06;12.00;99.90
24860;DHT22;12936;52.006;4.350;2023-04-24T01:02:39;12.10;99.90
24860;DHT22;12936;52.006;4.350;2023-04-24T01:05:11;12.00;99.90
24860;DHT22;12936;52.006;4.350;2023-04-24T01:07:43;12.00;99.90
24860;DHT22;12936;52.006;4.350;2023-04-24T01:10:13;12.00;99.90
24860;DHT22;12936;52.006;4.350;2023-04-24T01:12:42;12.00;99.90
24860;DHT22;12936;52.006;4.350;2023-04-24T01:15:10;12.00;99.90
24860;DHT22;12936;52.006;4.350;2023-04-24T01:17:39;12.00;99.90
24860;DHT22;12936;52.006;4.350;2023-04-24T01:20:07;12.00;99.90
24860;DHT22;12936;52.006;4.350;2023-04-24T01:22:37;11.90;99.90
24860;DHT22;12936;52.006;4.350;2023-04-24T01:25:05;11.90;99.90
24860;DHT22;12936;52.006;4.350;2023-04-24T01:27:34;11.90;99.90
24860;DHT22;12936;52.006;4.350;2023-04-24T01:30:02;11.90;99.90
24860;DHT22;12936;52.006;4.350;2023-04-24T01:32:31;11.90;99.90
24860;DHT22;12936;52.006;4.350;2023-04-24T01:34:59;11.90;99.90
24860;DHT22;12936;52.006;4.350;2023-04-24T01:37:27;11.90;99.90
24860;DHT22;12936;52.006;4.350;2023-04-24T01:39:56;11.90;99.90
24860;DHT22;12936;52.006;4.350;2023-04-24T01:42:25;11.90;99.90
24860;DHT22;12936;52.006;4.350;2023-04-24T01:44:53;11.90;99.90
24860;DHT22;12936;52.006;4.350;2023-04-24T01:47:21;11.90;99.90
24860;DHT22;12936;52.006;4.350;2023-04-24T01:49:50;11.90;99.90
24860;DHT22;12936;52.006;4.350;2023-04-24T01:52:19;11.90;99.90
24860;DHT22;12936;52.006;4.350;2023-04-24T01:54:47;11.90;99.90
24860;DHT22;12936;52.006;4.350;2023-04-24T01:57:16;11.90;99.90
24860;DHT22;12936;52.006;4.350;2023-04-24T01:59:44;12.00;99.90
24860;DHT22;12936;52.006;4.350;2023-04-24T02:02:12;11.90;99.90
24860;DHT22;12936;52.006;4.350;2023-04-24T02:04:40;12.00;99.90
24860;DHT22;12936;52.006;4.350;2023-04-24T02:07:08;12.00;99.90
24860;DHT22;12936;52.006;4.350;2023-04-24T02:09:36;11.90;99.90
24860;DHT22;12936;52.006;4.350;2023-04-24T02:12:05;12.00;99.90
24860;DHT22;12936;52.006;4.350;2023-04-24T02:14:34;11.90;99.90
24860;DHT22;12936;52.006;4.350;2023-04-24T02:17:02;12.00;99.90
24860;DHT22;12936;52.006;4.350;2023-04-24T02:19:31;12.00;99.90
24860;DHT22;12936;52.006;4.350;2023-04-24T02:21:59;11.90;99.90
24860;DHT22;12936;52.006;4.350;2023-04-24T02:24:27;11.90;99.90
24860;DHT22;12936;52.006;4.350;2023-04-24T02:26:55;11.90;99.90
24860;DHT22;12936;52.006;4.350;2023-04-24T02:29:24;11.90;99.90
24860;DHT22;12936;52.006;4.350;2023-04-24T02:31:53;11.80;99.90
24860;DHT22;12936;52.006;4.350;2023-04-24T02:34:22;11.80;99.90
24860;DHT22;12936;52.006;4.350;2023-04-24T02:36:50;11.70;99.90
24860;DHT22;12936;52.006;4.350;2023-04-24T02:39:20;11.70;99.90
24860;DHT22;12936;52.006;4.350;2023-04-24T02:41:48;11.70;99.90
24860;DHT22;12936;52.006;4.350;2023-04-24T02:44:16;11.70;99.90
24860;DHT22;12936;52.006;4.350;2023-04-24T02:46:44;11.60;99.90
24860;DHT22;12936;52.006;4.350;2023-04-24T02:49:14;11.60;99.90
24860;DHT22;12936;52.006;4.350;2023-04-24T02:51:46;11.60;99.90
24860;DHT22;12936;52.006;4.350;2023-04-24T02:54:14;11.60;99.90
24860;DHT22;12936;52.006;4.350;2023-04-24T02:56:42;11.60;99.90
24860;DHT22;12936;52.006;4.350;2023-04-24T02:59:10;11.60;99.90
24860;DHT22;12936;52.006;4.350;2023-04-24T03:01:38;11.60;99.90
24860;DHT22;12936;52.006;4.350;2023-04-24T03:04:06;11.60;99.90
24860;DHT22;12936;52.006;4.350;2023-04-24T03:06:36;11.60;99.90
24860;DHT22;12936;52.006;4.350;2023-04-24T03:09:04;11.60;99.90
24860;DHT22;12936;52.006;4.350;2023-04-24T03:11:32;11.50;99.90
24860;DHT22;12936;52.006;4.350;2023-04-24T03:14:00;11.50;99.90
24860;DHT22;12936;52.006;4.350;2023-04-24T03:16:29;11.60;99.90
24860;DHT22;12936;52.006;4.350;2023-04-24T03:18:57;11.60;99.90
24860;DHT22;12936;52.006;4.350;2023-04-24T03:21:25;11.60;99.90
24860;DHT22;12936;52.006;4.350;2023-04-24T03:23:55;11.60;99.90
24860;DHT22;12936;52.006;4.350;2023-04-24T03:26:23;11.50;99.90
24860;DHT22;12936;52.006;4.350;2023-04-24T03:28:51;11.60;99.90
24860;DHT22;12936;52.006;4.350;2023-04-24T03:31:19;11.60;99.90
24860;DHT22;12936;52.006;4.350;2023-04-24T03:33:51;11.60;99.90
24860;DHT22;12936;52.006;4.350;2023-04-24T03:36:19;11.60;99.90
24860;DHT22;12936;52.006;4.350;2023-04-24T03:38:47;11.60;99.90
24860;DHT22;12936;52.006;4.350;2023-04-24T03:41:16;11.60;99.90
24860;DHT22;12936;52.006;4.350;2023-04-24T03:43:44;11.60;99.90
24860;DHT22;12936;52.006;4.350;2023-04-24T03:46:13;11.60;99.90
24860;DHT22;12936;52.006;4.350;2023-04-24T03:48:41;11.60;99.90
24860;DHT22;12936;52.006;4.350;2023-04-24T03:51:09;11.60;99.90
24860;DHT22;12936;52.006;4.350;2023-04-24T03:53:37;11.60;99.90
24860;DHT22;12936;52.006;4.350;2023-04-24T03:56:06;11.60;99.90
24860;DHT22;12936;52.006;4.350;2023-04-24T03:58:35;11.60;99.90
24860;DHT22;12936;52.006;4.350;2023-04-24T04:01:03;11.60;99.90
24860;DHT22;12936;52.006;4.350;2023-04-24T04:03:32;11.60;99.90
24860;DHT22;12936;52.006;4.350;2023-04-24T04:06:00;11.60;99.90
24860;DHT22;12936;52.006;4.350;2023-04-24T04:08:28;11.50;99.90
24860;DHT22;12936;52.006;4.350;2023-04-24T04:10:57;11.60;99.90
24860;DHT22;12936;52.006;4.350;2023-04-24T04:13:25;11.50;99.90
24860;DHT22;12936;52.006;4.350;2023-04-24T04:15:54;11.40;99.90
24860;DHT22;12936;52.006;4.350;2023-04-24T04:18:23;11.40;99.90
24860;DHT22;12936;52.006;4.350;2023-04-24T04:20:51;11.30;99.90
24860;DHT22;12936;52.006;4.350;2023-04-24T04:23:19;11.30;99.90
24860;DHT22;12936;52.006;4.350;2023-04-24T04:25:47;11.20;99.90
24860;DHT22;12936;52.006;4.350;2023-04-24T04:28:15;11.10;99.90
24860;DHT22;12936;52.006;4.350;2023-04-24T04:30:46;11.10;99.90
24860;DHT22;12936;52.006;4.350;2023-04-24T04:33:16;11.10;99.90
24860;DHT22;12936;52.006;4.350;2023-04-24T04:35:45;11.10;99.90
24860;DHT22;12936;52.006;4.350;2023-04-24T04:38:15;11.10;99.90
24860;DHT22;12936;52.006;4.350;2023-04-24T04:40:44;11.00;99.90
24860;DHT22;12936;52.006;4.350;2023-04-24T04:43:12;11.00;99.90
24860;DHT22;12936;52.006;4.350;2023-04-24T04:45:41;10.90;99.90
24860;DHT22;12936;52.006;4.350;2023-04-24T04:48:10;10.80;99.90
24860;DHT22;12936;52.006;4.350;2023-04-24T04:50:41;10.70;99.90
24860;DHT22;12936;52.006;4.350;2023-04-24T04:53:09;10.70;99.90
24860;DHT22;12936;52.006;4.350;2023-04-24T04:55:37;10.60;99.90
24860;DHT22;12936;52.006;4.350;2023-04-24T04:58:05;10.60;99.90
24860;DHT22;12936;52.006;4.350;2023-04-24T05:00:33;10.60;99.90
24860;DHT22;12936;52.006;4.350;2023-04-24T05:03:02;10.50;99.90
24860;DHT22;12936;52.006;4.350;2023-04-24T05:05:48;10.50;99.90
24860;DHT22;12936;52.006;4.350;2023-04-24T05:08:16;10.50;99.90
24860;DHT22;12936;52.006;4.350;2023-04-24T05:10:53;10.50;99.90
24860;DHT22;12936;52.006;4.350;2023-04-24T05:13:21;10.50;99.90
24860;DHT22;12936;52.006;4.350;2023-04-24T05:16:05;10.40;99.90
24860;DHT22;12936;52.006;4.350;2023-04-24T05:18:33;10.40;99.90
24860;DHT22;12936;52.006;4.350;2023-04-24T05:21:03;10.30;99.90
24860;DHT22;12936;52.006;4.350;2023-04-24T05:23:31;10.30;99.90
24860;DHT22;12936;52.006;4.350;2023-04-24T05:25:59;10.20;99.90
24860;DHT22;12936;52.006;4.350;2023-04-24T05:28:27;10.20;99.90
24860;DHT22;12936;52.006;4.350;2023-04-24T05:30:55;10.20;99.90
24860;DHT22;12936;52.006;4.350;2023-04-24T05:33:23;10.20;99.90
24860;DHT22;12936;52.006;4.350;2023-04-24T05:35:52;10.20;99.90
24860;DHT22;12936;52.006;4.350;2023-04-24T05:38:21;10.10;99.90
24860;DHT22;12936;52.006;4.350;2023-04-24T05:40:49;10.10;99.90
24860;DHT22;12936;52.006;4.350;2023-04-24T05:43:17;10.10;99.90
24860;DHT22;12936;52.006;4.350;2023-04-24T05:45:45;10.10;99.90
24860;DHT22;12936;52.006;4.350;2023-04-24T05:48:14;10.00;99.90
24860;DHT22;12936;52.006;4.350;2023-04-24T05:50:42;10.10;99.90
24860;DHT22;12936;52.006;4.350;2023-04-24T05:53:10;10.10;99.90
24860;DHT22;12936;52.006;4.350;2023-04-24T05:55:39;10.10;99.90
24860;DHT22;12936;52.006;4.350;2023-04-24T05:58:08;10.00;99.90
24860;DHT22;12936;52.006;4.350;2023-04-24T06:00:36;10.10;99.90
24860;DHT22;12936;52.006;4.350;2023-04-24T06:03:04;10.10;99.90
24860;DHT22;12936;52.006;4.350;2023-04-24T06:05:33;10.10;99.90
24860;DHT22;12936;52.006;4.350;2023-04-24T06:08:01;10.10;99.90
24860;DHT22;12936;52.006;4.350;2023-04-24T06:10:29;10.10;99.90
24860;DHT22;12936;52.006;4.350;2023-04-24T06:12:58;10.10;99.90
24860;DHT22;12936;52.006;4.350;2023-04-24T06:15:28;10.00;99.90
24860;DHT22;12936;52.006;4.350;2023-04-24T06:17:57;10.00;99.90
24860;DHT22;12936;52.006;4.350;2023-04-24T06:20:25;10.00;99.90
24860;DHT22;12936;52.006;4.350;2023-04-24T06:22:53;10.00;99.90
24860;DHT22;12936;52.006;4.350;2023-04-24T06:25:21;9.90;99.90
24860;DHT22;12936;52.006;4.350;2023-04-24T06:27:52;10.00;99.90
24860;DHT22;12936;52.006;4.350;2023-04-24T06:30:22;10.00;99.90
24860;DHT22;12936;52.006;4.350;2023-04-24T06:32:50;10.00;99.90
24860;DHT22;12936;52.006;4.350;2023-04-24T06:35:18;10.00;99.90
24860;DHT22;12936;52.006;4.350;2023-04-24T06:37:46;10.00;99.90
24860;DHT22;12936;52.006;4.350;2023-04-24T06:40:14;10.10;99.90
24860;DHT22;12936;52.006;4.350;2023-04-24T06:42:45;10.10;99.90
24860;DHT22;12936;52.006;4.350;2023-04-24T06:45:13;10.00;99.90
24860;DHT22;12936;52.006;4.350;2023-04-24T06:47:42;10.00;99.90
24860;DHT22;12936;52.006;4.350;2023-04-24T06:50:11;9.90;99.90
24860;DHT22;12936;52.006;4.350;2023-04-24T06:52:40;9.90;99.90
24860;DHT22;12936;52.006;4.350;2023-04-24T06:55:08;9.90;99.90
24860;DHT22;12936;52.006;4.350;2023-04-24T06:57:37;9.90;99.90
24860;DHT22;12936;52.006;4.350;2023-04-24T07:00:07;9.90;99.90
24860;DHT22;12936;52.006;4.350;2023-04-24T07:02:36;9.90;99.90
24860;DHT22;12936;52.006;4.350;2023-04-24T07:05:06;9.90;99.90
24860;DHT22;12936;52.006;4.350;2023-04-24T07:07:35;9.90;99.90
24860;DHT22;12936;52.006;4.350;2023-04-24T07:10:05;9.90;99.90
24860;DHT22;12936;52.006;4.350;2023-04-24T07:12:33;9.90;99.90
24860;DHT22;12936;52.006;4.350;2023-04-24T07:15:02;9.80;99.90
24860;DHT22;12936;52.006;4.350;2023-04-24T07:17:30;9.80;99.90
24860;DHT22;12936;52.006;4.350;2023-04-24T07:19:58;9.80;99.90
24860;DHT22;12936;52.006;4.350;2023-04-24T07:22:27;9.80;99.90
24860;DHT22;12936;52.006;4.350;2023-04-24T07:24:56;9.80;99.90
24860;DHT22;12936;52.006;4.350;2023-04-24T07:27:25;9.80;99.90
24860;DHT22;12936;52.006;4.350;2023-04-24T07:29:53;9.80;99.90
24860;DHT22;12936;52.006;4.350;2023-04-24T07:32:21;9.70;99.90
24860;DHT22;12936;52.006;4.350;2023-04-24T07:34:49;9.80;99.90
24860;DHT22;12936;52.006;4.350;2023-04-24T07:37:17;9.70;99.90
24860;DHT22;12936;52.006;4.350;2023-04-24T07:39:47;9.70;99.90
24860;DHT22;12936;52.006;4.350;2023-04-24T07:42:15;9.70;99.90
24860;DHT22;12936;52.006;4.350;2023-04-24T07:44:43;9.70;99.90
24860;DHT22;12936;52.006;4.350;2023-04-24T07:47:12;9.70;99.90
24860;DHT22;12936;52.006;4.350;2023-04-24T07:49:41;9.60;99.90
24860;DHT22;12936;52.006;4.350;2023-04-24T07:52:10;9.60;99.90
24860;DHT22;12936;52.006;4.350;2023-04-24T07:54:38;9.50;99.90
24860;DHT22;12936;52.006;4.350;2023-04-24T07:57:07;9.60;99.90
24860;DHT22;12936;52.006;4.350;2023-04-24T07:59:35;9.60;99.90
24860;DHT22;12936;52.006;4.350;2023-04-24T08:02:04;9.50;99.90
24860;DHT22;12936;52.006;4.350;2023-04-24T08:04:32;9.50;99.90
24860;DHT22;12936;52.006;4.350;2023-04-24T08:07:01;9.50;99.90
24860;DHT22;12936;52.006;4.350;2023-04-24T08:09:29;9.50;99.90
24860;DHT22;12936;52.006;4.350;2023-04-24T08:11:57;9.40;99.90
24860;DHT22;12936;52.006;4.350;2023-04-24T08:14:27;9.40;99.90
24860;DHT22;12936;52.006;4.350;2023-04-24T08:16:55;9.40;99.90
24860;DHT22;12936;52.006;4.350;2023-04-24T08:19:23;9.40;99.90
24860;DHT22;12936;52.006;4.350;2023-04-24T08:21:52;9.40;99.90
24860;DHT22;12936;52.006;4.350;2023-04-24T08:24:20;9.50;99.90
24860;DHT22;12936;52.006;4.350;2023-04-24T08:26:48;9.50;99.90
24860;DHT22;12936;52.006;4.350;2023-04-24T08:29:18;9.50;99.90
24860;DHT22;12936;52.006;4.350;2023-04-24T08:31:48;9.60;99.90
24860;DHT22;12936;52.006;4.350;2023-04-24T08:34:16;9.60;99.90
24860;DHT22;12936;52.006;4.350;2023-04-24T08:36:44;9.60;99.90
24860;DHT22;12936;52.006;4.350;2023-04-24T08:39:13;9.50;99.90
24860;DHT22;12936;52.006;4.350;2023-04-24T08:41:42;9.50;99.90
24860;DHT22;12936;52.006;4.350;2023-04-24T08:44:12;9.50;99.90
24860;DHT22;12936;52.006;4.350;2023-04-24T08:46:43;9.50;99.90
24860;DHT22;12936;52.006;4.350;2023-04-24T08:49:14;9.40;99.90
24860;DHT22;12936;52.006;4.350;2023-04-24T08:51:43;9.50;99.90
24860;DHT22;12936;52.006;4.350;2023-04-24T08:54:13;9.40;99.90
24860;DHT22;12936;52.006;4.350;2023-04-24T08:56:45;9.50;99.90
24860;DHT22;12936;52.006;4.350;2023-04-24T08:59:15;9.50;99.90
24860;DHT22;12936;52.006;4.350;2023-04-24T09:01:45;9.50;99.90
24860;DHT22;12936;52.006;4.350;2023-04-24T09:04:15;9.50;99.90
24860;DHT22;12936;52.006;4.350;2023-04-24T09:06:48;9.50;99.90
24860;DHT22;12936;52.006;4.350;2023-04-24T09:09:17;9.50;99.90
24860;DHT22;12936;52.006;4.350;2023-04-24T09:11:46;9.50;99.90
24860;DHT22;12936;52.006;4.350;2023-04-24T09:14:15;9.50;99.90
24860;DHT22;12936;52.006;4.350;2023-04-24T09:16:43;9.50;99.90
24860;DHT22;12936;52.006;4.350;2023-04-24T09:19:11;9.60;99.90
24860;DHT22;12936;52.006;4.350;2023-04-24T09:21:41;9.60;99.90
24860;DHT22;12936;52.006;4.350;2023-04-24T09:24:15;9.60;99.90
24860;DHT22;12936;52.006;4.350;2023-04-24T09:26:45;9.60;99.90
24860;DHT22;12936;52.006;4.350;2023-04-24T09:29:14;9.70;99.90
24860;DHT22;12936;52.006;4.350;2023-04-24T09:31:44;9.70;99.90
24860;DHT22;12936;52.006;4.350;2023-04-24T09:34:13;9.80;99.90
24860;DHT22;12936;52.006;4.350;2023-04-24T09:36:43;9.90;99.90
24860;DHT22;12936;52.006;4.350;2023-04-24T09:39:13;9.90;99.90
24860;DHT22;12936;52.006;4.350;2023-04-24T09:41:46;10.00;99.90
24860;DHT22;12936;52.006;4.350;2023-04-24T09:44:16;10.00;99.90
24860;DHT22;12936;52.006;4.350;2023-04-24T09:46:49;10.10;99.90
24860;DHT22;12936;52.006;4.350;2023-04-24T09:49:22;10.10;99.90
24860;DHT22;12936;52.006;4.350;2023-04-24T09:51:52;10.10;99.90
24860;DHT22;12936;52.006;4.350;2023-04-24T09:54:21;10.20;99.90
24860;DHT22;12936;52.006;4.350;2023-04-24T09:56:50;10.10;99.90
24860;DHT22;12936;52.006;4.350;2023-04-24T09:59:19;10.10;99.90
24860;DHT22;12936;52.006;4.350;2023-04-24T10:01:47;10.10;99.90
24860;DHT22;12936;52.006;4.350;2023-04-24T10:04:17;10.10;99.90
24860;DHT22;12936;52.006;4.350;2023-04-24T10:06:47;10.10;99.90
24860;DHT22;12936;52.006;4.350;2023-04-24T10:09:19;10.10;99.90
24860;DHT22;12936;52.006;4.350;2023-04-24T10:11:50;10.10;99.90
24860;DHT22;12936;52.006;4.350;2023-04-24T10:14:21;10.10;99.90
24860;DHT22;12936;52.006;4.350;2023-04-24T10:16:52;10.20;99.90
24860;DHT22;12936;52.006;4.350;2023-04-24T10:19:20;10.20;99.90
24860;DHT22;12936;52.006;4.350;2023-04-24T10:21:49;10.20;99.90
24860;DHT22;12936;52.006;4.350;2023-04-24T10:24:19;10.20;99.90
24860;DHT22;12936;52.006;4.350;2023-04-24T10:26:48;10.20;99.90
24860;DHT22;12936;52.006;4.350;2023-04-24T10:29:18;10.20;99.90
24860;DHT22;12936;52.006;4.350;2023-04-24T10:31:48;10.20;99.90
24860;DHT22;12936;52.006;4.350;2023-04-24T10:34:17;10.20;99.90
24860;DHT22;12936;52.006;4.350;2023-04-24T10:36:50;10.10;99.90
24860;DHT22;12936;52.006;4.350;2023-04-24T10:39:22;10.20;99.90
24860;DHT22;12936;52.006;4.350;2023-04-24T10:41:54;10.20;99.90
24860;DHT22;12936;52.006;4.350;2023-04-24T10:44:24;10.30;99.90
24860;DHT22;12936;52.006;4.350;2023-04-24T10:46:54;10.30;99.90
24860;DHT22;12936;52.006;4.350;2023-04-24T10:49:28;10.30;99.90
24860;DHT22;12936;52.006;4.350;2023-04-24T10:52:00;10.40;99.90
24860;DHT22;12936;52.006;4.350;2023-04-24T10:54:35;10.40;99.90
24860;DHT22;12936;52.006;4.350;2023-04-24T10:57:26;10.50;99.90
24860;DHT22;12936;52.006;4.350;2023-04-24T11:00:13;10.50;99.90
24860;DHT22;12936;52.006;4.350;2023-04-24T11:02:41;10.60;99.90
24860;DHT22;12936;52.006;4.350;2023-04-24T11:05:16;10.60;99.90
24860;DHT22;12936;52.006;4.350;2023-04-24T11:08:13;10.50;99.90
24860;DHT22;12936;52.006;4.350;2023-04-24T11:10:45;10.60;99.90
24860;DHT22;12936;52.006;4.350;2023-04-24T11:13:15;10.60;99.90
24860;DHT22;12936;52.006;4.350;2023-04-24T11:15:44;10.60;99.90
24860;DHT22;12936;52.006;4.350;2023-04-24T11:18:15;10.60;99.90
24860;DHT22;12936;52.006;4.350;2023-04-24T11:20:44;10.70;99.90
24860;DHT22;12936;52.006;4.350;2023-04-24T11:23:13;10.70;99.90
24860;DHT22;12936;52.006;4.350;2023-04-24T11:25:41;10.80;99.90
24860;DHT22;12936;52.006;4.350;2023-04-24T11:28:14;10.80;99.90
24860;DHT22;12936;52.006;4.350;2023-04-24T11:30:43;10.80;99.90
24860;DHT22;12936;52.006;4.350;2023-04-24T11:33:12;10.90;99.90
24860;DHT22;12936;52.006;4.350;2023-04-24T11:35:47;10.90;99.90
24860;DHT22;12936;52.006;4.350;2023-04-24T11:38:17;10.90;99.90
24860;DHT22;12936;52.006;4.350;2023-04-24T11:40:51;11.00;99.90
24860;DHT22;12936;52.006;4.350;2023-04-24T11:43:21;10.90;99.90
24860;DHT22;12936;52.006;4.350;2023-04-24T11:45:49;10.90;99.90
24860;DHT22;12936;52.006;4.350;2023-04-24T11:48:19;10.90;99.90
24860;DHT22;12936;52.006;4.350;2023-04-24T11:50:50;10.90;99.90
24860;DHT22;12936;52.006;4.350;2023-04-24T11:53:19;10.90;99.90
24860;DHT22;12936;52.006;4.350;2023-04-24T11:55:48;10.90;99.90
24860;DHT22;12936;52.006;4.350;2023-04-24T11:58:21;11.00;99.90
24860;DHT22;12936;52.006;4.350;2023-04-24T12:00:56;11.00;99.90
24860;DHT22;12936;52.006;4.350;2023-04-24T12:03:24;11.00;99.90
24860;DHT22;12936;52.006;4.350;2023-04-24T12:05:53;11.10;99.90
24860;DHT22;12936;52.006;4.350;2023-04-24T12:08:32;11.00;99.90
24860;DHT22;12936;52.006;4.350;2023-04-24T12:11:03;11.10;99.90
24860;DHT22;12936;52.006;4.350;2023-04-24T12:13:33;11.10;99.90
24860;DHT22;12936;52.006;4.350;2023-04-24T12:16:02;11.10;99.90
24860;DHT22;12936;52.006;4.350;2023-04-24T12:18:31;11.10;99.90
24860;DHT22;12936;52.006;4.350;2023-04-24T12:21:16;11.20;99.90
24860;DHT22;12936;52.006;4.350;2023-04-24T12:23:47;11.20;99.90
24860;DHT22;12936;52.006;4.350;2023-04-24T12:26:19;11.30;99.90
24860;DHT22;12936;52.006;4.350;2023-04-24T12:28:50;11.30;99.90
24860;DHT22;12936;52.006;4.350;2023-04-24T12:31:21;11.30;99.90
24860;DHT22;12936;52.006;4.350;2023-04-24T12:33:49;11.40;99.90
24860;DHT22;12936;52.006;4.350;2023-04-24T12:36:18;11.40;99.90
24860;DHT22;12936;52.006;4.350;2023-04-24T12:38:53;11.30;99.90
24860;DHT22;12936;52.006;4.350;2023-04-24T12:41:21;11.30;99.90
24860;DHT22;12936;52.006;4.350;2023-04-24T12:43:53;11.30;99.90
24860;DHT22;12936;52.006;4.350;2023-04-24T12:46:22;11.30;99.90
24860;DHT22;12936;52.006;4.350;2023-04-24T12:48:50;11.30;99.90
24860;DHT22;12936;52.006;4.350;2023-04-24T12:51:18;11.30;99.90
24860;DHT22;12936;52.006;4.350;2023-04-24T12:53:46;11.20;99.90
24860;DHT22;12936;52.006;4.350;2023-04-24T12:56:14;11.20;99.90
24860;DHT22;12936;52.006;4.350;2023-04-24T12:58:42;11.20;99.90
24860;DHT22;12936;52.006;4.350;2023-04-24T13:01:12;11.20;99.90
24860;DHT22;12936;52.006;4.350;2023-04-24T13:03:40;11.10;99.90
24860;DHT22;12936;52.006;4.350;2023-04-24T13:06:09;11.10;99.90
24860;DHT22;12936;52.006;4.350;2023-04-24T13:08:37;11.10;99.90
24860;DHT22;12936;52.006;4.350;2023-04-24T13:11:05;11.00;99.90
24860;DHT22;12936;52.006;4.350;2023-04-24T13:13:33;11.00;99.90
24860;DHT22;12936;52.006;4.350;2023-04-24T13:16:01;11.00;99.90
24860;DHT22;12936;52.006;4.350;2023-04-24T13:18:31;11.00;99.90
24860;DHT22;12936;52.006;4.350;2023-04-24T13:20:59;11.00;99.90
24860;DHT22;12936;52.006;4.350;2023-04-24T13:23:27;11.10;99.90
24860;DHT22;12936;52.006;4.350;2023-04-24T13:25:55;11.10;99.90
24860;DHT22;12936;52.006;4.350;2023-04-24T13:28:25;11.20;99.90
24860;DHT22;12936;52.006;4.350;2023-04-24T13:30:53;11.20;99.90
24860;DHT22;12936;52.006;4.350;2023-04-24T13:33:21;11.20;99.90
24860;DHT22;12936;52.006;4.350;2023-04-24T13:35:50;11.20;99.90
24860;DHT22;12936;52.006;4.350;2023-04-24T13:38:18;11.20;99.90
24860;DHT22;12936;52.006;4.350;2023-04-24T13:40:48;11.30;99.90
24860;DHT22;12936;52.006;4.350;2023-04-24T13:43:16;11.30;99.90
24860;DHT22;12936;52.006;4.350;2023-04-24T13:45:44;11.30;99.90
24860;DHT22;12936;52.006;4.350;2023-04-24T13:48:12;11.50;99.90
24860;DHT22;12936;52.006;4.350;2023-04-24T13:50:42;11.70;99.90
24860;DHT22;12936;52.006;4.350;2023-04-24T13:53:12;11.80;99.90
24860;DHT22;12936;52.006;4.350;2023-04-24T13:55:40;11.80;99.90
24860;DHT22;12936;52.006;4.350;2023-04-24T13:58:08;11.80;99.90
24860;DHT22;12936;52.006;4.350;2023-04-24T14:00:37;11.80;99.90
24860;DHT22;12936;52.006;4.350;2023-04-24T14:03:05;11.80;99.90
24860;DHT22;12936;52.006;4.350;2023-04-24T14:05:33;11.70;99.90
24860;DHT22;12936;52.006;4.350;2023-04-24T14:08:04;11.70;99.90
24860;DHT22;12936;52.006;4.350;2023-04-24T14:10:34;11.60;99.90
24860;DHT22;12936;52.006;4.350;2023-04-24T14:13:02;11.50;99.90
24860;DHT22;12936;52.006;4.350;2023-04-24T14:15:30;11.40;99.90
24860;DHT22;12936;52.006;4.350;2023-04-24T14:17:58;11.30;99.90
24860;DHT22;12936;52.006;4.350;2023-04-24T14:20:27;11.30;99.90
24860;DHT22;12936;52.006;4.350;2023-04-24T14:22:55;11.30;99.90
24860;DHT22;12936;52.006;4.350;2023-04-24T14:25:25;11.30;99.90
24860;DHT22;12936;52.006;4.350;2023-04-24T14:27:55;11.30;99.90
24860;DHT22;12936;52.006;4.350;2023-04-24T14:30:23;11.40;99.90
24860;DHT22;12936;52.006;4.350;2023-04-24T14:32:51;11.40;99.90
24860;DHT22;12936;52.006;4.350;2023-04-24T14:35:19;11.40;99.90
24860;DHT22;12936;52.006;4.350;2023-04-24T14:37:47;11.40;99.90
24860;DHT22;12936;52.006;4.350;2023-04-24T14:40:16;11.40;99.90
24860;DHT22;12936;52.006;4.350;2023-04-24T14:43:05;11.50;99.90
24860;DHT22;12936;52.006;4.350;2023-04-24T14:45:34;11.60;99.90
24860;DHT22;12936;52.006;4.350;2023-04-24T14:48:02;11.60;99.90
24860;DHT22;12936;52.006;4.350;2023-04-24T14:50:30;11.70;99.90
24860;DHT22;12936;52.006;4.350;2023-04-24T14:52:58;11.70;99.90
24860;DHT22;12936;52.006;4.350;2023-04-24T14:55:28;11.60;99.90
24860;DHT22;12936;52.006;4.350;2023-04-24T14:57:57;11.50;99.90
24860;DHT22;12936;52.006;4.350;2023-04-24T15:00:27;11.40;99.90
24860;DHT22;12936;52.006;4.350;2023-04-24T15:02:55;11.30;99.90
24860;DHT22;12936;52.006;4.350;2023-04-24T15:05:23;11.30;99.90
24860;DHT22;12936;52.006;4.350;2023-04-24T15:07:52;11.20;99.90
24860;DHT22;12936;52.006;4.350;2023-04-24T15:10:20;11.20;99.90
24860;DHT22;12936;52.006;4.350;2023-04-24T15:12:49;11.20;99.90
24860;DHT22;12936;52.006;4.350;2023-04-24T15:15:19;11.30;99.90
24860;DHT22;12936;52.006;4.350;2023-04-24T15:17:48;11.40;99.90
24860;DHT22;12936;52.006;4.350;2023-04-24T15:20:17;11.40;99.90
24860;DHT22;12936;52.006;4.350;2023-04-24T15:22:46;11.40;99.90
24860;DHT22;12936;52.006;4.350;2023-04-24T15:25:14;11.40;99.90
24860;DHT22;12936;52.006;4.350;2023-04-24T15:27:42;11.50;99.90
24860;DHT22;12936;52.006;4.350;2023-04-24T15:30:12;11.50;99.90
24860;DHT22;12936;52.006;4.350;2023-04-24T15:32:40;11.80;99.90
24860;DHT22;12936;52.006;4.350;2023-04-24T15:35:10;12.00;99.90
24860;DHT22;12936;52.006;4.350;2023-04-24T15:37:38;12.30;99.90
24860;DHT22;12936;52.006;4.350;2023-04-24T15:40:07;12.60;99.90
24860;DHT22;12936;52.006;4.350;2023-04-24T15:42:41;12.70;99.90
24860;DHT22;12936;52.006;4.350;2023-04-24T15:45:10;12.60;99.90